Anchor, Texas
Current Conditions -  °F | °C
As of 6:53 PM on Wednesday 26 Nov 2014 (Local Time) from KLBX Reporting Station
Clear Clear  
Wind Chill: 52°   Ceiling: Unl
Heat Index: 52°   Visibility: 10mi
Dew Point: 45°   Wind: 3mph
Humidity: 77%   Direction: 170°S
Pressure: 30.26"   Gusts: NA
Location:  29.1898°N, 95.4754°W
Report Text: KLBX 270053Z AUTO 17003KT 10SM CLR 11/07 A3026 RMK AO2 SLP245 T01110072
Loading
Personal Weather Stations






























Interactive Weather Map New forecast layout! Learn more

10-Day Weather Forecast

Advertisements
Track Severe Weather on mobile